新潟空港の過去48時間の天気

新潟空港 (Niigata)

現在時刻: 1/19 20:34 JST (1/19 11:34 UTC) 以下の時間は現地時間です。

過去48時間のMETAR気象情報
時間 風向 風速(m/s) 視程 気温(℃) 湿度(%) 気圧(hPa) 天気現象
19 20:00 西 3 10km以上 5 56 1020
19 19:00 西 6 10km以上 6 52 1021
19 18:00 西 7 10km以上 5 56 1021
19 17:00 西 7 10km以上 5 52 1021
19 16:00 西 7 10km以上 7 45 1021
19 15:00 西 7 10km以上 7 39 1022
19 14:00 西 6 10km以上 8 39 1021
19 13:00 西 8 10km以上 8 42 1021
19 12:00 西 9 10km以上 8 39 1022
19 11:00 西 6 10km以上 7 42 1023
19 10:00 西 7 10km以上 7 42 1023
19 09:00 西 6 10km以上 6 49 1023
19 08:00 西南西 4 10km以上 4 56 1023
19 07:00 西 5 10km以上 4 48 1023
19 06:10 西 6 10km以上 4 52 1023
18 21:00 西 8 10km以上 3 56 1021 弱いしゅう雪
18 20:00 西北西 10 10km以上 3 56 1021
18 19:20 西北西 11 10km以上 3 70 1021
18 19:00 西 10 10km以上 3 65 1021 弱いしゅう雪
18 18:37 西 11 3000m 2 81 1021 弱いしゅう雪 弱いしゅうあられ
18 18:00 西 11 5000m 2 75 1020 弱いしゅう雪
18 17:41 西 10 10km以上 3 65 1020 弱いしゅう雪
18 17:32 西 11 4500m 3 70 1020 弱いしゅう雪 弱いしゅうあられ
18 17:08 西北西 11 8000m 3 60 1020 弱いしゅう雪
18 17:00 西 10 10km以上 4 56 1019 弱いしゅう雪
18 16:27 西 10 10km以上 4 48 1019 弱いしゅう雪
18 16:04 西 11 10km以上 4 48 1019 弱いしゅう雪
18 16:00 西 11 10km以上 4 56 1019 弱いしゅう雪 弱いしゅうあられ
18 15:00 西 11 10km以上 4 52 1019 周辺でしゅう雨
18 14:00 西 11 10km以上 5 45 1018 周辺でしゅう雨
18 13:23 西 11 10km以上 5 45 1018 周辺でしゅう雨
18 13:00 西北西 12 10km以上 5 56 1018 弱いしゅう雪
18 12:03 西北西 10 10km以上 4 52 1019 弱いしゅう雪
18 12:00 西北西 9 10km以上 4 52 1019 弱いしゅう雪
18 11:12 西 11 10km以上 5 45 1019 周辺でしゅう雨
18 11:00 西 9 10km以上 4 56 1019 弱いしゅう雪
18 10:00 西 11 10km以上 4 60 1019 弱いしゅう雪
18 09:34 西 11 10km以上 3 56 1019 弱いしゅう雪
18 09:00 西 12 10km以上 3 52 1019 弱いしゅう雪
18 08:20 西 11 10km以上 2 60 1018
18 08:00 西 12 10km以上 2 60 1018
18 07:11 西 9 7000m 2 64 1018 弱いしゅう雪
18 07:00 西 11 5000m 1 69 1018 弱いしゅう雪
18 06:15 西 10 8000m 1 75 1017 弱いしゅう雪
18 06:10 西 11 6000m 0 69 1017 弱いしゅう雪
17 21:30 北西 15 7000m 2 93 1012 弱いしゅう雨 弱いしゅう雪
17 21:20 北西 14 4500m 2 87 1012 弱いしゅう雨 弱いしゅう雪
17 21:00 北北西 14 6000m 2 100 1012 弱いしゅう雨 弱いしゅう雪
RJSN 191100Z 26006KT 170V300 9999 FEW040 SCT070 05/M03 Q1020
RJSN 191000Z 28012KT 9999 FEW050 SCT070 BKN/// 06/M03 Q1021
RJSN 190900Z 27013KT 9999 FEW040 BKN/// 05/M03 Q1021
RJSN 190800Z 27014KT 9999 FEW040 BKN/// 05/M04 Q1021
RJSN 190700Z 27013KT 9999 FEW040 SCT050 07/M04 Q1021
RJSN 190600Z 28013KT 9999 FEW040 SCT050 07/M06 Q1022
RJSN 190500Z 26011KT 9999 FEW040 SCT050 08/M05 Q1021
RJSN 190400Z 27015KT 9999 FEW030 SCT040 08/M04 Q1021
RJSN 190300Z 26017KT 9999 FEW030 SCT040 08/M05 Q1022
RJSN 190200Z 27012KT 9999 FEW030 SCT040 07/M05 Q1023
RJSN 190100Z 27013KT 9999 FEW030 SCT040 07/M05 Q1023
RJSN 190000Z 27011KT 9999 FEW020 BKN040 06/M04 Q1023
RJSN 182300Z 25008KT 9999 FEW020 SCT040 BKN050 04/M04 Q1023
RJSN 182200Z 27010KT 9999 FEW020 SCT050 BKN070 04/M06 Q1023
RJSN 182110Z 26012KT 9999 FEW020 BKN050 04/M05 Q1023 RMK 1CU020 5CU050 A3021
RJSN 181200Z 27015KT 9999 -SHSN FEW010 SCT020 BKN040 03/M05 Q1021
RJSN 181100Z 29019KT 9999 FEW010 SCT040 03/M05 Q1021
RJSN 181020Z 29021G31KT 9999 FEW010 SCT040 BKN070 03/M02 Q1021 RMK 1CU010 3CU040 6AC070 A3016
RJSN 181000Z 28020KT 9999 -SHSN FEW010 SCT040 BKN070 03/M03 Q1021
RJSN 180937Z 27022KT 3000 -SHSNGS FEW010 BKN020 BKN040 02/M01 Q1021 RMK 2CU010 5CU020 7CU040 A3016 SNOW PELLETS
RJSN 180900Z 27021G34KT 5000 -SHSN FEW008 SCT010 BKN020 02/M02 Q1020
RJSN 180841Z 28020G30KT 9999 -SHSN FEW010 SCT020 BKN040 03/M03 Q1020 RMK 1CU010 3CU020 5CU040 A3013
RJSN 180832Z 28022G32KT 4500 -SHSNGS FEW015 BKN020 BKN040 03/M02 Q1020 RMK 1CU015 5CU020 7CU040 A3014 SNOW PELLETS
RJSN 180808Z 29021G31KT 8000 -SHSN FEW015 SCT020 BKN040 03/M04 Q1020 RMK 1CU015 3CU020 6CU040 A3013
RJSN 180800Z 28020G30KT 9999 -SHSN FEW015 SCT040 BKN050 04/M04 Q1019
RJSN 180727Z 28020G30KT 9999 -SHSN FEW015 SCT040 BKN050 04/M06 Q1019 RMK 1CU015 4CU040 6CU050 A3011
RJSN 180704Z 27022KT 9999 -SHSN FEW015 BKN040 04/M06 Q1019 RMK 2CU015 6CU040 A3011
RJSN 180700Z 27022KT 9999 -SHSNGS FEW015 BKN040 04/M04 Q1019
RJSN 180600Z 28022KT 9999 VCSH FEW015 BKN040 04/M05 Q1019
RJSN 180500Z 27021KT 9999 VCSH FEW015 SCT040 05/M06 Q1018
RJSN 180423Z 28022G32KT 9999 VCSH FEW015 SCT025 BKN040 05/M06 Q1018 RMK 1CU015 3CU025 5CU040 A3007
RJSN 180400Z 30023KT 9999 -SHSN FEW015 SCT040 05/M03 Q1018
RJSN 180303Z 29020G31KT 9999 -SHSN FEW015 SCT025 BKN040 04/M05 Q1019 RMK 1CU015 3CU025 6CU040 A3009
RJSN 180300Z 29018KT 9999 -SHSN FEW015 SCT025 BKN040 04/M05 Q1019
RJSN 180212Z 27022G33KT 9999 VCSH FEW015 SCT025 BKN040 05/M06 Q1019 RMK 1CU015 3CU025 5CU040 A3010
RJSN 180200Z 26018KT 9999 -SHSN FEW015 SCT025 BKN040 04/M04 Q1019
RJSN 180100Z 27021KT 9999 -SHSN FEW015 SCT025 BKN040 04/M03 Q1019
RJSN 180034Z 27022G32KT 9999 -SHSN FEW015 SCT025 BKN040 03/M05 Q1019 RMK 1CU015 3CU025 5CU040 A3011
RJSN 180000Z 27023KT 9999 -SHSN FEW010 SCT020 BKN035 03/M06 Q1019
RJSN 172320Z 27021G31KT 9999 FEW010 SCT020 BKN030 02/M05 Q1018 RMK 1CU010 3CU020 5CU030 A3009
RJSN 172300Z 27023KT 9999 FEW010 SCT020 BKN030 02/M05 Q1018
RJSN 172211Z 28018G28KT 7000 -SHSN FEW010 SCT015 BKN025 02/M04 Q1018 RMK 1CU010 3CU015 6CU025 A3007
RJSN 172200Z 27022KT 5000 -SHSN FEW008 SCT015 BKN020 01/M04 Q1018
RJSN 172115Z 28019G30KT 8000 -SHSN FEW008 SCT015 BKN020 01/M03 Q1017 RMK 1CU008 3CU015 6CU020 A3005
RJSN 172110Z 28022KT 6000 -SHSN FEW008 SCT015 BKN020 00/M05 Q1017 RMK 1CU008 3CU015 6CU020 A3005
RJSN 171230Z 32029KT 7000 -SHRASN FEW008 BKN010 BKN015 02/01 Q1012 RMK 1CU008 5CU010 7CU015 A2991
RJSN 171220Z 32028KT 4500 -SHRASN FEW008 BKN010 BKN020 02/00 Q1012 RMK 1CU008 5CU010 7CU020 A2991
RJSN 171200Z 33027KT 6000 -SHRASN FEW008 BKN010 BKN020 02/02 Q1012